sensor_id;sensor_type;location;lat;lon;timestamp;pressure;altitude;pressure_sealevel;temperature
58102;BMP280;52034;51.926;6.320;2023-08-08T00:00:47;101354.38;;;15.98
58102;BMP280;52034;51.926;6.320;2023-08-08T00:01:47;101352.25;;;15.98
58102;BMP280;52034;51.926;6.320;2023-08-08T00:02:47;101339.47;;;15.95
58102;BMP280;52034;51.926;6.320;2023-08-08T00:03:48;101352.88;;;15.95
58102;BMP280;52034;51.926;6.320;2023-08-08T00:04:49;101349.31;;;15.94
58102;BMP280;52034;51.926;6.320;2023-08-08T00:05:50;101332.91;;;15.89
58102;BMP280;52034;51.926;6.320;2023-08-08T00:06:50;101344.31;;;15.93
58102;BMP280;52034;51.926;6.320;2023-08-08T00:07:50;101334.41;;;15.92
58102;BMP280;52034;51.926;6.320;2023-08-08T00:08:51;101341.56;;;15.95
58102;BMP280;52034;51.926;6.320;2023-08-08T00:09:51;101338.06;;;15.96
58102;BMP280;52034;51.926;6.320;2023-08-08T00:10:51;101334.41;;;15.92
58102;BMP280;52034;51.926;6.320;2023-08-08T00:11:52;101329.41;;;15.90
58102;BMP280;52034;51.926;6.320;2023-08-08T00:12:52;101330.09;;;15.89
58102;BMP280;52034;51.926;6.320;2023-08-08T00:13:52;101334.31;;;15.88
58102;BMP280;52034;51.926;6.320;2023-08-08T00:14:52;101334.31;;;15.88
58102;BMP280;52034;51.926;6.320;2023-08-08T00:15:53;101337.84;;;15.88
58102;BMP280;52034;51.926;6.320;2023-08-08T00:16:53;101334.22;;;15.84
58102;BMP280;52034;51.926;6.320;2023-08-08T00:17:53;101337.00;;;15.82
58102;BMP280;52034;51.926;6.320;2023-08-08T00:18:54;101332.06;;;15.82
58102;BMP280;52034;51.926;6.320;2023-08-08T00:19:54;101330.47;;;15.75
58102;BMP280;52034;51.926;6.320;2023-08-08T00:20:54;101326.94;;;15.75
58102;BMP280;52034;51.926;6.320;2023-08-08T00:21:54;101334.78;;;15.78
58102;BMP280;52034;51.926;6.320;2023-08-08T00:22:55;101326.22;;;15.74
58102;BMP280;52034;51.926;6.320;2023-08-08T00:23:55;101331.16;;;15.74
58102;BMP280;52034;51.926;6.320;2023-08-08T00:24:55;101323.38;;;15.74
58102;BMP280;52034;51.926;6.320;2023-08-08T00:25:56;101317.63;;;15.70
58102;BMP280;52034;51.926;6.320;2023-08-08T00:26:56;101308.50;;;15.74
58102;BMP280;52034;51.926;6.320;2023-08-08T00:27:56;101327.66;;;15.75
58102;BMP280;52034;51.926;6.320;2023-08-08T00:28:57;101320.50;;;15.72
58102;BMP280;52034;51.926;6.320;2023-08-08T00:29:57;101314.81;;;15.70
58102;BMP280;52034;51.926;6.320;2023-08-08T00:30:57;101316.22;;;15.69
58102;BMP280;52034;51.926;6.320;2023-08-08T00:31:57;101311.25;;;15.70
58102;BMP280;52034;51.926;6.320;2023-08-08T00:32:58;101308.25;;;15.64
58102;BMP280;52034;51.926;6.320;2023-08-08T00:33:58;101323.91;;;15.67
58102;BMP280;52034;51.926;6.320;2023-08-08T00:34:58;101321.75;;;15.65
58102;BMP280;52034;51.926;6.320;2023-08-08T00:35:59;101317.41;;;15.62
58102;BMP280;52034;51.926;6.320;2023-08-08T00:37:00;101321.06;;;15.65
58102;BMP280;52034;51.926;6.320;2023-08-08T00:38:00;101323.06;;;15.62
58102;BMP280;52034;51.926;6.320;2023-08-08T00:39:01;101322.38;;;15.62
58102;BMP280;52034;51.926;6.320;2023-08-08T00:40:03;101325.06;;;15.56
58102;BMP280;52034;51.926;6.320;2023-08-08T00:41:03;101324.97;;;15.52
58102;BMP280;52034;51.926;6.320;2023-08-08T00:42:05;101324.31;;;15.53
58102;BMP280;52034;51.926;6.320;2023-08-08T00:43:05;101323.56;;;15.53
58102;BMP280;52034;51.926;6.320;2023-08-08T00:44:05;101319.97;;;15.50
58102;BMP280;52034;51.926;6.320;2023-08-08T00:45:06;101320.75;;;15.53
58102;BMP280;52034;51.926;6.320;2023-08-08T00:46:07;101313.66;;;15.52
58102;BMP280;52034;51.926;6.320;2023-08-08T00:47:10;101320.81;;;15.55
58102;BMP280;52034;51.926;6.320;2023-08-08T00:48:11;101317.25;;;15.54
58102;BMP280;52034;51.926;6.320;2023-08-08T00:49:11;101314.47;;;15.56
58102;BMP280;52034;51.926;6.320;2023-08-08T00:50:12;101305.94;;;15.54
58102;BMP280;52034;51.926;6.320;2023-08-08T00:51:14;101315.31;;;15.63
58102;BMP280;52034;51.926;6.320;2023-08-08T00:52:15;101301.81;;;15.59
58102;BMP280;52034;51.926;6.320;2023-08-08T00:53:17;101308.22;;;15.62
58102;BMP280;52034;51.926;6.320;2023-08-08T00:54:18;101303.22;;;15.60
58102;BMP280;52034;51.926;6.320;2023-08-08T00:55:19;101313.16;;;15.61
58102;BMP280;52034;51.926;6.320;2023-08-08T00:56:21;101314.50;;;15.58
58102;BMP280;52034;51.926;6.320;2023-08-08T00:57:21;101308.19;;;15.60
58102;BMP280;52034;51.926;6.320;2023-08-08T00:58:22;101313.97;;;15.66
58102;BMP280;52034;51.926;6.320;2023-08-08T00:59:23;101311.13;;;15.66
58102;BMP280;52034;51.926;6.320;2023-08-08T01:00:23;101316.94;;;15.72
58102;BMP280;52034;51.926;6.320;2023-08-08T01:01:24;101317.69;;;15.72
58102;BMP280;52034;51.926;6.320;2023-08-08T01:02:24;101320.50;;;15.72
58102;BMP280;52034;51.926;6.320;2023-08-08T01:03:24;101329.09;;;15.76
58102;BMP280;52034;51.926;6.320;2023-08-08T01:04:27;101321.22;;;15.73
58102;BMP280;52034;51.926;6.320;2023-08-08T01:05:33;101327.66;;;15.75
58102;BMP280;52034;51.926;6.320;2023-08-08T01:06:41;101317.06;;;15.76
58102;BMP280;52034;51.926;6.320;2023-08-08T01:07:54;101322.81;;;15.80
58102;BMP280;52034;51.926;6.320;2023-08-08T01:09:01;101326.44;;;15.84
58102;BMP280;52034;51.926;6.320;2023-08-08T01:11:08;101313.00;;;15.85
58102;BMP280;52034;51.926;6.320;2023-08-08T01:12:09;101320.78;;;15.84
58102;BMP280;52034;51.926;6.320;2023-08-08T01:13:14;101307.13;;;15.77
58102;BMP280;52034;51.926;6.320;2023-08-08T01:14:15;101317.88;;;15.80
58102;BMP280;52034;51.926;6.320;2023-08-08T01:15:17;101315.84;;;15.85
58102;BMP280;52034;51.926;6.320;2023-08-08T01:16:19;101308.09;;;15.85
58102;BMP280;52034;51.926;6.320;2023-08-08T01:17:20;101308.09;;;15.85
58102;BMP280;52034;51.926;6.320;2023-08-08T01:18:21;101308.16;;;15.89
58102;BMP280;52034;51.926;6.320;2023-08-08T01:19:28;101310.34;;;15.93
58102;BMP280;52034;51.926;6.320;2023-08-08T01:20:29;101311.03;;;15.91
58102;BMP280;52034;51.926;6.320;2023-08-08T01:21:35;101297.53;;;15.90
58102;BMP280;52034;51.926;6.320;2023-08-08T01:23:03;101296.09;;;15.89
58102;BMP280;52034;51.926;6.320;2023-08-08T01:25:18;101296.09;;;15.89
58102;BMP280;52034;51.926;6.320;2023-08-08T01:26:21;101296.84;;;15.89
58102;BMP280;52034;51.926;6.320;2023-08-08T01:27:22;101303.28;;;15.92
58102;BMP280;52034;51.926;6.320;2023-08-08T01:28:23;101299.59;;;15.87
58102;BMP280;52034;51.926;6.320;2023-08-08T01:29:24;101296.06;;;15.87
58102;BMP280;52034;51.926;6.320;2023-08-08T01:30:24;101307.50;;;15.93
58102;BMP280;52034;51.926;6.320;2023-08-08T01:31:25;101310.22;;;15.87
58102;BMP280;52034;51.926;6.320;2023-08-08T01:32:25;101304.59;;;15.89
58102;BMP280;52034;51.926;6.320;2023-08-08T01:33:26;101295.34;;;15.86
58102;BMP280;52034;51.926;6.320;2023-08-08T01:34:26;101311.69;;;15.90
58102;BMP280;52034;51.926;6.320;2023-08-08T01:35:30;101306.03;;;15.90
58102;BMP280;52034;51.926;6.320;2023-08-08T01:36:40;101304.56;;;15.87
58102;BMP280;52034;51.926;6.320;2023-08-08T01:37:48;101301.84;;;15.91
58102;BMP280;52034;51.926;6.320;2023-08-08T01:38:51;101302.50;;;15.89
58102;BMP280;52034;51.926;6.320;2023-08-08T01:39:53;101301.03;;;15.86
58102;BMP280;52034;51.926;6.320;2023-08-08T01:40:56;101303.84;;;15.86
58102;BMP280;52034;51.926;6.320;2023-08-08T01:41:59;101286.88;;;15.86
58102;BMP280;52034;51.926;6.320;2023-08-08T01:43:00;101286.22;;;15.90
58102;BMP280;52034;51.926;6.320;2023-08-08T01:44:01;101291.25;;;15.93
58102;BMP280;52034;51.926;6.320;2023-08-08T01:45:03;101287.66;;;15.91
58102;BMP280;52034;51.926;6.320;2023-08-08T01:46:04;101296.84;;;15.89
58102;BMP280;52034;51.926;6.320;2023-08-08T01:47:05;101293.28;;;15.89
58102;BMP280;52034;51.926;6.320;2023-08-08T01:48:09;101289.72;;;15.88
58102;BMP280;52034;51.926;6.320;2023-08-08T01:49:09;101295.44;;;15.90
58102;BMP280;52034;51.926;6.320;2023-08-08T01:50:10;101290.41;;;15.87
58102;BMP280;52034;51.926;6.320;2023-08-08T01:51:10;101286.09;;;15.84
58102;BMP280;52034;51.926;6.320;2023-08-08T01:52:10;101287.53;;;15.85
58102;BMP280;52034;51.926;6.320;2023-08-08T01:53:11;101286.03;;;15.82
58102;BMP280;52034;51.926;6.320;2023-08-08T01:54:11;101289.63;;;15.84
58102;BMP280;52034;51.926;6.320;2023-08-08T01:55:12;101279.66;;;15.81
58102;BMP280;52034;51.926;6.320;2023-08-08T01:56:12;101288.88;;;15.82
58102;BMP280;52034;51.926;6.320;2023-08-08T01:57:12;101275.31;;;15.78
58102;BMP280;52034;51.926;6.320;2023-08-08T01:58:13;101278.88;;;15.79
58102;BMP280;52034;51.926;6.320;2023-08-08T01:59:14;101283.88;;;15.80
58102;BMP280;52034;51.926;6.320;2023-08-08T02:00:14;101284.47;;;15.75
58102;BMP280;52034;51.926;6.320;2023-08-08T02:01:17;101290.16;;;15.77
58102;BMP280;52034;51.926;6.320;2023-08-08T02:02:19;101277.41;;;15.76
58102;BMP280;52034;51.926;6.320;2023-08-08T02:03:19;101275.22;;;15.72
58102;BMP280;52034;51.926;6.320;2023-08-08T02:04:20;101260.91;;;15.66
58102;BMP280;52034;51.926;6.320;2023-08-08T02:05:20;101268.78;;;15.70
58102;BMP280;52034;51.926;6.320;2023-08-08T02:06:21;101271.66;;;15.72
58102;BMP280;52034;51.926;6.320;2023-08-08T02:07:21;101268.81;;;15.72
58102;BMP280;52034;51.926;6.320;2023-08-08T02:08:21;101262.41;;;15.69
58102;BMP280;52034;51.926;6.320;2023-08-08T02:09:21;101264.44;;;15.67
58102;BMP280;52034;51.926;6.320;2023-08-08T02:10:22;101272.28;;;15.68
58102;BMP280;52034;51.926;6.320;2023-08-08T02:11:22;101272.94;;;15.65
58102;BMP280;52034;51.926;6.320;2023-08-08T02:12:23;101267.19;;;15.63
58102;BMP280;52034;51.926;6.320;2023-08-08T02:13:23;101271.56;;;15.68
58102;BMP280;52034;51.926;6.320;2023-08-08T02:14:24;101277.91;;;15.66
58102;BMP280;52034;51.926;6.320;2023-08-08T02:15:24;101269.41;;;15.66
58102;BMP280;52034;51.926;6.320;2023-08-08T02:16:24;101272.19;;;15.64
58102;BMP280;52034;51.926;6.320;2023-08-08T02:17:25;101274.34;;;15.66
58102;BMP280;52034;51.926;6.320;2023-08-08T02:18:26;101272.25;;;15.66
58102;BMP280;52034;51.926;6.320;2023-08-08T02:19:26;101265.13;;;15.65
58102;BMP280;52034;51.926;6.320;2023-08-08T02:20:27;101271.50;;;15.66
58102;BMP280;52034;51.926;6.320;2023-08-08T02:21:28;101268.00;;;15.67
58102;BMP280;52034;51.926;6.320;2023-08-08T02:22:28;101266.63;;;15.68
58102;BMP280;52034;51.926;6.320;2023-08-08T02:23:30;101257.97;;;15.62
58102;BMP280;52034;51.926;6.320;2023-08-08T02:24:30;101264.44;;;15.65
58102;BMP280;52034;51.926;6.320;2023-08-08T02:25:30;101254.59;;;15.68
58102;BMP280;52034;51.926;6.320;2023-08-08T02:26:31;101264.66;;;15.75
58102;BMP280;52034;51.926;6.320;2023-08-08T02:27:31;101261.03;;;15.70
58102;BMP280;52034;51.926;6.320;2023-08-08T02:28:31;101267.41;;;15.73
58102;BMP280;52034;51.926;6.320;2023-08-08T02:29:32;101262.50;;;15.73
58102;BMP280;52034;51.926;6.320;2023-08-08T02:30:33;101254.59;;;15.68
58102;BMP280;52034;51.926;6.320;2023-08-08T02:31:34;101248.75;;;15.60
58102;BMP280;52034;51.926;6.320;2023-08-08T02:32:34;101254.47;;;15.64
58102;BMP280;52034;51.926;6.320;2023-08-08T02:33:34;101251.69;;;15.66
58102;BMP280;52034;51.926;6.320;2023-08-08T02:34:35;101248.94;;;15.68
58102;BMP280;52034;51.926;6.320;2023-08-08T02:35:36;101248.25;;;15.69
58102;BMP280;52034;51.926;6.320;2023-08-08T02:36:38;101246.19;;;15.72
58102;BMP280;52034;51.926;6.320;2023-08-08T02:37:38;101245.53;;;15.75
58102;BMP280;52034;51.926;6.320;2023-08-08T02:38:39;101246.94;;;15.74
58102;BMP280;52034;51.926;6.320;2023-08-08T02:39:39;101244.78;;;15.73
58102;BMP280;52034;51.926;6.320;2023-08-08T02:40:39;101240.53;;;15.74
58102;BMP280;52034;51.926;6.320;2023-08-08T02:41:40;101246.91;;;15.72
58102;BMP280;52034;51.926;6.320;2023-08-08T02:42:40;101241.28;;;15.74
58102;BMP280;52034;51.926;6.320;2023-08-08T02:43:41;101241.31;;;15.76
58102;BMP280;52034;51.926;6.320;2023-08-08T02:44:41;101254.16;;;15.79
58102;BMP280;52034;51.926;6.320;2023-08-08T02:45:41;101244.19;;;15.78
58102;BMP280;52034;51.926;6.320;2023-08-08T02:46:42;101239.88;;;15.75
58102;BMP280;52034;51.926;6.320;2023-08-08T02:47:42;101242.72;;;15.75
58102;BMP280;52034;51.926;6.320;2023-08-08T02:48:42;101243.47;;;15.78
58102;BMP280;52034;51.926;6.320;2023-08-08T02:49:43;101239.19;;;15.77
58102;BMP280;52034;51.926;6.320;2023-08-08T02:50:43;101234.22;;;15.75
58102;BMP280;52034;51.926;6.320;2023-08-08T02:51:43;101227.88;;;15.77
58102;BMP280;52034;51.926;6.320;2023-08-08T02:52:44;101231.50;;;15.79
58102;BMP280;52034;51.926;6.320;2023-08-08T02:53:44;101220.84;;;15.78
58102;BMP280;52034;51.926;6.320;2023-08-08T02:54:45;101220.19;;;15.81
58102;BMP280;52034;51.926;6.320;2023-08-08T02:55:46;101215.97;;;15.82
58102;BMP280;52034;51.926;6.320;2023-08-08T02:56:47;101222.34;;;15.81
58102;BMP280;52034;51.926;6.320;2023-08-08T02:57:47;101219.44;;;15.79
58102;BMP280;52034;51.926;6.320;2023-08-08T02:58:48;101223.03;;;15.81
58102;BMP280;52034;51.926;6.320;2023-08-08T02:59:49;101229.38;;;15.80
58102;BMP280;52034;51.926;6.320;2023-08-08T03:00:49;101221.50;;;15.76
58102;BMP280;52034;51.926;6.320;2023-08-08T03:01:51;101222.28;;;15.79
58102;BMP280;52034;51.926;6.320;2023-08-08T03:02:52;101233.59;;;15.79
58102;BMP280;52034;51.926;6.320;2023-08-08T03:03:52;101223.63;;;15.76
58102;BMP280;52034;51.926;6.320;2023-08-08T03:04:54;101227.84;;;15.75
58102;BMP280;52034;51.926;6.320;2023-08-08T03:05:57;101239.19;;;15.77
58102;BMP280;52034;51.926;6.320;2023-08-08T03:06:58;101227.78;;;15.73
58102;BMP280;52034;51.926;6.320;2023-08-08T03:07:59;101227.78;;;15.71
58102;BMP280;52034;51.926;6.320;2023-08-08T03:09:00;101230.47;;;15.67
58102;BMP280;52034;51.926;6.320;2023-08-08T03:10:01;101230.47;;;15.67
58102;BMP280;52034;51.926;6.320;2023-08-08T03:11:03;101228.22;;;15.61
58102;BMP280;52034;51.926;6.320;2023-08-08T03:12:03;101224.44;;;15.51
58102;BMP280;52034;51.926;6.320;2023-08-08T03:13:06;101224.38;;;15.47
58102;BMP280;52034;51.926;6.320;2023-08-08T03:14:07;101224.38;;;15.47
58102;BMP280;52034;51.926;6.320;2023-08-08T03:15:09;101235.06;;;15.50
58102;BMP280;52034;51.926;6.320;2023-08-08T03:16:11;101231.50;;;15.50
58102;BMP280;52034;51.926;6.320;2023-08-08T03:17:12;101220.25;;;15.52
58102;BMP280;52034;51.926;6.320;2023-08-08T03:18:12;101225.19;;;15.51
58102;BMP280;52034;51.926;6.320;2023-08-08T03:19:12;101220.19;;;15.48
58102;BMP280;52034;51.926;6.320;2023-08-08T03:20:13;101220.25;;;15.52
58102;BMP280;52034;51.926;6.320;2023-08-08T03:21:13;101217.34;;;15.50
58102;BMP280;52034;51.926;6.320;2023-08-08T03:22:14;101221.53;;;15.47
58102;BMP280;52034;51.926;6.320;2023-08-08T03:23:14;101217.34;;;15.48
58102;BMP280;52034;51.926;6.320;2023-08-08T03:24:15;101213.00;;;15.45
58102;BMP280;52034;51.926;6.320;2023-08-08T03:25:15;101221.50;;;15.45
58102;BMP280;52034;51.926;6.320;2023-08-08T03:26:15;101222.94;;;15.46
58102;BMP280;52034;51.926;6.320;2023-08-08T03:27:17;101219.28;;;15.41
58102;BMP280;52034;51.926;6.320;2023-08-08T03:28:20;101222.22;;;15.45
58102;BMP280;52034;51.926;6.320;2023-08-08T03:29:21;101221.47;;;15.43
58102;BMP280;52034;51.926;6.320;2023-08-08T03:30:23;101217.28;;;15.46
58102;BMP280;52034;51.926;6.320;2023-08-08T03:31:23;101212.25;;;15.42
58102;BMP280;52034;51.926;6.320;2023-08-08T03:32:24;101216.47;;;15.41
58102;BMP280;52034;51.926;6.320;2023-08-08T03:33:25;101218.50;;;15.37
58102;BMP280;52034;51.926;6.320;2023-08-08T03:34:25;101211.44;;;15.38
58102;BMP280;52034;51.926;6.320;2023-08-08T03:35:25;101217.19;;;15.42
58102;BMP280;52034;51.926;6.320;2023-08-08T03:36:27;101212.91;;;15.41
58102;BMP280;52034;51.926;6.320;2023-08-08T03:37:27;101213.56;;;15.39
58102;BMP280;52034;51.926;6.320;2023-08-08T03:38:27;101216.53;;;15.43
58102;BMP280;52034;51.926;6.320;2023-08-08T03:39:28;101223.56;;;15.42
58102;BMP280;52034;51.926;6.320;2023-08-08T03:40:28;101217.81;;;15.38
58102;BMP280;52034;51.926;6.320;2023-08-08T03:41:29;101212.97;;;15.43
58102;BMP280;52034;51.926;6.320;2023-08-08T03:42:29;101218.56;;;15.41
58102;BMP280;52034;51.926;6.320;2023-08-08T03:43:30;101215.03;;;15.40
58102;BMP280;52034;51.926;6.320;2023-08-08T03:44:31;101215.75;;;15.41
58102;BMP280;52034;51.926;6.320;2023-08-08T03:45:31;101217.88;;;15.40
58102;BMP280;52034;51.926;6.320;2023-08-08T03:46:32;101217.81;;;15.38
58102;BMP280;52034;51.926;6.320;2023-08-08T03:47:33;101218.53;;;15.39
58102;BMP280;52034;51.926;6.320;2023-08-08T03:48:34;101213.41;;;15.31
58102;BMP280;52034;51.926;6.320;2023-08-08T03:49:34;101222.66;;;15.34
58102;BMP280;52034;51.926;6.320;2023-08-08T03:50:34;101219.81;;;15.34
58102;BMP280;52034;51.926;6.320;2023-08-08T03:51:35;101214.88;;;15.34
58102;BMP280;52034;51.926;6.320;2023-08-08T03:52:35;101217.06;;;15.36
58102;BMP280;52034;51.926;6.320;2023-08-08T03:53:37;101210.63;;;15.33
58102;BMP280;52034;51.926;6.320;2023-08-08T03:54:38;101208.50;;;15.34
58102;BMP280;52034;51.926;6.320;2023-08-08T03:55:39;101212.88;;;15.39
58102;BMP280;52034;51.926;6.320;2023-08-08T03:56:39;101205.06;;;15.37
58102;BMP280;52034;51.926;6.320;2023-08-08T03:57:39;101206.50;;;15.38
58102;BMP280;52034;51.926;6.320;2023-08-08T03:58:40;101205.81;;;15.40
58102;BMP280;52034;51.926;6.320;2023-08-08T03:59:40;101201.56;;;15.39
58102;BMP280;52034;51.926;6.320;2023-08-08T04:00:41;101204.41;;;15.41
58102;BMP280;52034;51.926;6.320;2023-08-08T04:01:46;101214.31;;;15.40
58102;BMP280;52034;51.926;6.320;2023-08-08T04:02:46;101207.91;;;15.37
58102;BMP280;52034;51.926;6.320;2023-08-08T04:03:46;101207.16;;;15.37
58102;BMP280;52034;51.926;6.320;2023-08-08T04:04:47;101204.25;;;15.33
58102;BMP280;52034;51.926;6.320;2023-08-08T04:05:47;101203.50;;;15.30
58102;BMP280;52034;51.926;6.320;2023-08-08T04:06:48;101205.53;;;15.28
58102;BMP280;52034;51.926;6.320;2023-08-08T04:07:49;101199.84;;;15.26
58102;BMP280;52034;51.926;6.320;2023-08-08T04:08:49;101207.66;;;15.27
58102;BMP280;52034;51.926;6.320;2023-08-08T04:09:49;101209.00;;;15.24
58102;BMP280;52034;51.926;6.320;2023-08-08T04:10:50;101196.94;;;15.24
58102;BMP280;52034;51.926;6.320;2023-08-08T04:11:50;101208.34;;;15.26
58102;BMP280;52034;51.926;6.320;2023-08-08T04:12:51;101201.28;;;15.27
58102;BMP280;52034;51.926;6.320;2023-08-08T04:13:51;101193.38;;;15.21
58102;BMP280;52034;51.926;6.320;2023-08-08T04:14:51;101194.19;;;15.28
58102;BMP280;52034;51.926;6.320;2023-08-08T04:15:52;101199.84;;;15.26
58102;BMP280;52034;51.926;6.320;2023-08-08T04:16:52;101202.69;;;15.28
58102;BMP280;52034;51.926;6.320;2023-08-08T04:17:52;101206.97;;;15.29
58102;BMP280;52034;51.926;6.320;2023-08-08T04:18:53;101199.88;;;15.28
58102;BMP280;52034;51.926;6.320;2023-08-08T04:19:53;101202.09;;;15.31
58102;BMP280;52034;51.926;6.320;2023-08-08T04:20:53;101204.19;;;15.31
58102;BMP280;52034;51.926;6.320;2023-08-08T04:21:54;101202.69;;;15.28
58102;BMP280;52034;51.926;6.320;2023-08-08T04:22:54;101204.19;;;15.31
58102;BMP280;52034;51.926;6.320;2023-08-08T04:23:54;101197.03;;;15.28
58102;BMP280;52034;51.926;6.320;2023-08-08T04:24:54;101201.44;;;15.33
58102;BMP280;52034;51.926;6.320;2023-08-08T04:25:55;101200.69;;;15.32
58102;BMP280;52034;51.926;6.320;2023-08-08T04:26:55;101199.41;;;15.37
58102;BMP280;52034;51.926;6.320;2023-08-08T04:27:55;101200.00;;;15.34
58102;BMP280;52034;51.926;6.320;2023-08-08T04:28:56;101193.69;;;15.35
58102;BMP280;52034;51.926;6.320;2023-08-08T04:29:56;101212.88;;;15.39
58102;BMP280;52034;51.926;6.320;2023-08-08T04:30:56;101205.66;;;15.34
58102;BMP280;52034;51.926;6.320;2023-08-08T04:31:56;101200.84;;;15.38
58102;BMP280;52034;51.926;6.320;2023-08-08T04:32:57;101212.91;;;15.41
58102;BMP280;52034;51.926;6.320;2023-08-08T04:33:57;101204.53;;;15.45
58102;BMP280;52034;51.926;6.320;2023-08-08T04:35:00;101210.88;;;15.45
58102;BMP280;52034;51.926;6.320;2023-08-08T04:36:00;101210.28;;;15.49
58102;BMP280;52034;51.926;6.320;2023-08-08T04:37:00;101210.31;;;15.51
58102;BMP280;52034;51.926;6.320;2023-08-08T04:38:01;101204.63;;;15.49
58102;BMP280;52034;51.926;6.320;2023-08-08T04:39:02;101208.88;;;15.50
58102;BMP280;52034;51.926;6.320;2023-08-08T04:40:02;101211.75;;;15.52
58102;BMP280;52034;51.926;6.320;2023-08-08T04:41:03;101211.03;;;15.51
58102;BMP280;52034;51.926;6.320;2023-08-08T04:42:04;101209.63;;;15.52
58102;BMP280;52034;51.926;6.320;2023-08-08T04:43:04;101208.28;;;15.55
58102;BMP280;52034;51.926;6.320;2023-08-08T04:44:04;101216.09;;;15.57
58102;BMP280;52034;51.926;6.320;2023-08-08T04:45:05;101211.09;;;15.53
58102;BMP280;52034;51.926;6.320;2023-08-08T04:46:06;101212.56;;;15.56
58102;BMP280;52034;51.926;6.320;2023-08-08T04:47:06;101214.16;;;15.63
58102;BMP280;52034;51.926;6.320;2023-08-08T04:48:06;101200.63;;;15.60
58102;BMP280;52034;51.926;6.320;2023-08-08T04:49:07;101203.50;;;15.62
58102;BMP280;52034;51.926;6.320;2023-08-08T04:50:07;101204.94;;;15.63
58102;BMP280;52034;51.926;6.320;2023-08-08T04:51:08;101207.75;;;15.63
58102;BMP280;52034;51.926;6.320;2023-08-08T04:52:09;101202.03;;;15.59
58102;BMP280;52034;51.926;6.320;2023-08-08T04:53:09;101199.22;;;15.61
58102;BMP280;52034;51.926;6.320;2023-08-08T04:54:09;101201.28;;;15.58
58102;BMP280;52034;51.926;6.320;2023-08-08T04:55:10;101197.03;;;15.57
58102;BMP280;52034;51.926;6.320;2023-08-08T04:56:10;101201.34;;;15.60
58102;BMP280;52034;51.926;6.320;2023-08-08T04:57:10;101200.59;;;15.58
58102;BMP280;52034;51.926;6.320;2023-08-08T04:58:11;101185.06;;;15.61
58102;BMP280;52034;51.926;6.320;2023-08-08T04:59:11;101193.59;;;15.63
58102;BMP280;52034;51.926;6.320;2023-08-08T05:00:14;101194.94;;;15.58
58102;BMP280;52034;51.926;6.320;2023-08-08T05:01:14;101190.78;;;15.63
58102;BMP280;52034;51.926;6.320;2023-08-08T05:02:15;101190.78;;;15.63
58102;BMP280;52034;51.926;6.320;2023-08-08T05:03:17;101188.72;;;15.65
58102;BMP280;52034;51.926;6.320;2023-08-08T05:04:17;101186.66;;;15.68
58102;BMP280;52034;51.926;6.320;2023-08-08T05:05:18;101184.47;;;15.66
58102;BMP280;52034;51.926;6.320;2023-08-08T05:06:18;101190.84;;;15.67
58102;BMP280;52034;51.926;6.320;2023-08-08T05:07:18;101189.53;;;15.70
58102;BMP280;52034;51.926;6.320;2023-08-08T05:08:19;101186.59;;;15.66
58102;BMP280;52034;51.926;6.320;2023-08-08T05:09:20;101185.97;;;15.69
58102;BMP280;52034;51.926;6.320;2023-08-08T05:10:20;101191.56;;;15.67
58102;BMP280;52034;51.926;6.320;2023-08-08T05:11:21;101193.06;;;15.70
58102;BMP280;52034;51.926;6.320;2023-08-08T05:12:21;101192.38;;;15.72
58102;BMP280;52034;51.926;6.320;2023-08-08T05:13:21;101193.81;;;15.71
58102;BMP280;52034;51.926;6.320;2023-08-08T05:14:22;101187.34;;;15.68
58102;BMP280;52034;51.926;6.320;2023-08-08T05:15:22;101191.66;;;15.71
58102;BMP280;52034;51.926;6.320;2023-08-08T05:16:22;101192.38;;;15.72
58102;BMP280;52034;51.926;6.320;2023-08-08T05:17:24;101199.53;;;15.75
58102;BMP280;52034;51.926;6.320;2023-08-08T05:18:25;101188.16;;;15.73
58102;BMP280;52034;51.926;6.320;2023-08-08T05:19:25;101189.56;;;15.72
58102;BMP280;52034;51.926;6.320;2023-08-08T05:20:25;101188.16;;;15.73
58102;BMP280;52034;51.926;6.320;2023-08-08T05:21:26;101192.41;;;15.74
58102;BMP280;52034;51.926;6.320;2023-08-08T05:22:26;101180.38;;;15.73
58102;BMP280;52034;51.926;6.320;2023-08-08T05:23:26;101179.72;;;15.75
58102;BMP280;52034;51.926;6.320;2023-08-08T05:24:27;101186.91;;;15.80
58102;BMP280;52034;51.926;6.320;2023-08-08T05:25:27;101186.94;;;15.82
58102;BMP280;52034;51.926;6.320;2023-08-08T05:26:27;101194.75;;;15.83
58102;BMP280;52034;51.926;6.320;2023-08-08T05:27:28;101187.00;;;15.84
58102;BMP280;52034;51.926;6.320;2023-08-08T05:28:28;101183.56;;;15.89
58102;BMP280;52034;51.926;6.320;2023-08-08T05:29:29;101186.44;;;15.91
58102;BMP280;52034;51.926;6.320;2023-08-08T05:30:29;101179.47;;;15.96
58102;BMP280;52034;51.926;6.320;2023-08-08T05:31:30;101185.16;;;15.98
58102;BMP280;52034;51.926;6.320;2023-08-08T05:32:30;101181.53;;;15.94
58102;BMP280;52034;51.926;6.320;2023-08-08T05:33:30;101185.03;;;15.92
58102;BMP280;52034;51.926;6.320;2023-08-08T05:34:30;101187.19;;;15.94
58102;BMP280;52034;51.926;6.320;2023-08-08T05:35:31;101175.91;;;15.96
58102;BMP280;52034;51.926;6.320;2023-08-08T05:36:31;101180.88;;;15.95
58102;BMP280;52034;51.926;6.320;2023-08-08T05:37:31;101183.03;;;15.97
58102;BMP280;52034;51.926;6.320;2023-08-08T05:38:32;101180.19;;;15.99
58102;BMP280;52034;51.926;6.320;2023-08-08T05:39:32;101184.44;;;15.98
58102;BMP280;52034;51.926;6.320;2023-08-08T05:40:35;101183.16;;;16.05
58102;BMP280;52034;51.926;6.320;2023-08-08T05:41:36;101184.47;;;16.00
58102;BMP280;52034;51.926;6.320;2023-08-08T05:42:39;101184.53;;;16.02
58102;BMP280;52034;51.926;6.320;2023-08-08T05:43:39;101177.38;;;15.97
58102;BMP280;52034;51.926;6.320;2023-08-08T05:44:40;101187.41;;;16.04
58102;BMP280;52034;51.926;6.320;2023-08-08T05:45:44;101181.00;;;16.03
58102;BMP280;52034;51.926;6.320;2023-08-08T05:46:45;101187.50;;;16.08
58102;BMP280;52034;51.926;6.320;2023-08-08T05:47:45;101187.41;;;16.04
58102;BMP280;52034;51.926;6.320;2023-08-08T05:48:45;101184.59;;;16.06